createdAt,value
2019-05-09T00:00:23.325Z,958.66
2019-05-09T00:01:23.552Z,958.61
2019-05-09T00:02:24.179Z,958.58
2019-05-09T00:03:21.523Z,958.60
2019-05-09T00:04:23.090Z,958.62
2019-05-09T00:05:23.291Z,958.63
2019-05-09T00:06:23.775Z,958.58
2019-05-09T00:07:23.323Z,958.49
2019-05-09T00:08:23.092Z,958.45
2019-05-09T00:09:23.185Z,958.48
2019-05-09T00:10:37.544Z,958.51
2019-05-09T00:11:21.649Z,958.46
2019-05-09T00:12:23.404Z,958.37
2019-05-09T00:13:23.776Z,958.27
2019-05-09T00:14:23.767Z,958.31
2019-05-09T00:15:21.611Z,958.28
2019-05-09T00:16:23.466Z,958.28
2019-05-09T00:17:23.247Z,958.35
2019-05-09T00:18:23.307Z,958.30
2019-05-09T00:19:23.701Z,958.33
2019-05-09T00:20:23.812Z,958.39
2019-05-09T00:21:23.790Z,958.33
2019-05-09T00:22:23.899Z,958.29
2019-05-09T00:23:23.845Z,958.28
2019-05-09T00:24:23.800Z,958.31
2019-05-09T00:25:23.543Z,958.36
2019-05-09T00:26:23.554Z,958.24
2019-05-09T00:27:23.153Z,958.29
2019-05-09T00:28:23.568Z,958.32
2019-05-09T00:29:21.805Z,958.34
2019-05-09T00:30:23.168Z,958.22
2019-05-09T00:31:23.791Z,958.33
2019-05-09T00:32:23.790Z,958.33
2019-05-09T00:33:23.539Z,958.32
2019-05-09T00:34:23.411Z,958.27
2019-05-09T00:35:23.377Z,958.29
2019-05-09T00:36:23.238Z,958.29
2019-05-09T00:37:23.808Z,958.31
2019-05-09T00:38:23.833Z,958.30
2019-05-09T00:39:23.608Z,958.31
2019-05-09T00:40:23.706Z,958.30
2019-05-09T00:41:23.772Z,958.28
2019-05-09T00:42:23.983Z,958.29
2019-05-09T00:43:23.681Z,958.24
2019-05-09T00:44:23.243Z,958.21
2019-05-09T00:45:23.782Z,958.16
2019-05-09T00:46:23.637Z,958.16
2019-05-09T00:47:23.853Z,958.23
2019-05-09T00:48:23.072Z,958.16
2019-05-09T00:49:23.555Z,958.27
2019-05-09T00:50:23.539Z,958.25
2019-05-09T00:51:23.293Z,958.25
2019-05-09T00:52:23.466Z,958.18
2019-05-09T00:53:23.219Z,958.15
2019-05-09T00:54:23.916Z,958.22
2019-05-09T00:55:23.744Z,958.22
2019-05-09T00:56:23.751Z,958.25
2019-05-09T00:57:23.025Z,958.24
2019-05-09T00:58:24.047Z,958.23
2019-05-09T00:59:23.985Z,958.26
2019-05-09T01:00:24.109Z,958.21
2019-05-09T01:01:23.739Z,958.29
2019-05-09T01:02:23.543Z,958.13
2019-05-09T01:03:23.420Z,958.25
2019-05-09T01:04:23.962Z,958.29
2019-05-09T01:05:23.774Z,958.22
2019-05-09T01:06:23.782Z,958.32
2019-05-09T01:07:23.256Z,958.21
2019-05-09T01:08:24.065Z,958.24
2019-05-09T01:09:21.468Z,958.19
2019-05-09T01:10:23.532Z,958.10
2019-05-09T01:11:23.973Z,958.15
2019-05-09T01:12:23.528Z,958.20
2019-05-09T01:13:23.187Z,958.13
2019-05-09T01:14:23.435Z,958.19
2019-05-09T01:15:23.821Z,958.21
2019-05-09T01:16:23.906Z,958.15
2019-05-09T01:17:23.924Z,958.14
2019-05-09T01:18:23.636Z,958.09
2019-05-09T01:19:23.296Z,958.08
2019-05-09T01:20:24.015Z,958.06
2019-05-09T01:21:23.792Z,958.00
2019-05-09T01:22:23.585Z,958.04
2019-05-09T01:23:23.375Z,958.01
2019-05-09T01:24:23.270Z,958.03
2019-05-09T01:25:21.489Z,958.04
2019-05-09T01:26:23.896Z,958.11
2019-05-09T01:27:23.340Z,958.17
2019-05-09T01:28:23.238Z,958.10
2019-05-09T01:29:23.038Z,958.03
2019-05-09T01:30:23.913Z,958.08
2019-05-09T01:31:23.777Z,958.05
2019-05-09T01:32:23.708Z,958.08
2019-05-09T01:33:21.683Z,958.06
2019-05-09T01:34:23.792Z,958.01
2019-05-09T01:35:23.300Z,957.95
2019-05-09T01:36:23.483Z,958.07
2019-05-09T01:37:23.731Z,958.02
2019-05-09T01:38:23.205Z,958.02
2019-05-09T01:39:21.595Z,958.01
2019-05-09T01:40:23.874Z,958.04
2019-05-09T01:41:29.802Z,958.01
2019-05-09T01:42:23.314Z,958.05
2019-05-09T01:43:21.624Z,958.09
2019-05-09T01:44:23.823Z,958.13
2019-05-09T01:45:23.552Z,958.12
2019-05-09T01:46:23.580Z,958.08
2019-05-09T01:47:23.524Z,958.09
2019-05-09T01:48:23.429Z,958.05
2019-05-09T01:49:23.244Z,958.07
2019-05-09T01:50:23.344Z,958.09
2019-05-09T01:51:23.334Z,958.15
2019-05-09T01:52:23.143Z,958.17
2019-05-09T01:53:23.808Z,958.13
2019-05-09T01:54:23.630Z,958.00
2019-05-09T01:55:23.419Z,957.98
2019-05-09T01:56:23.484Z,958.11
2019-05-09T01:57:23.226Z,958.05
2019-05-09T01:58:23.272Z,958.17
2019-05-09T01:59:21.642Z,958.12
2019-05-09T02:00:23.760Z,958.11
2019-05-09T02:01:23.977Z,958.07
2019-05-09T02:02:23.519Z,958.09
2019-05-09T02:03:23.346Z,958.03
2019-05-09T02:04:24.072Z,958.10
2019-05-09T02:05:23.945Z,958.05
2019-05-09T02:06:24.118Z,958.04
2019-05-09T02:07:23.661Z,958.05
2019-05-09T02:08:23.618Z,958.09
2019-05-09T02:09:23.464Z,958.15
2019-05-09T02:10:23.242Z,958.06
2019-05-09T02:11:23.631Z,958.10
2019-05-09T02:12:21.867Z,958.11
2019-05-09T02:13:23.133Z,958.09
2019-05-09T02:14:23.875Z,958.07
2019-05-09T02:15:23.602Z,958.08
2019-05-09T02:16:23.457Z,958.14
2019-05-09T02:17:23.239Z,958.09
2019-05-09T02:18:23.082Z,958.11
2019-05-09T02:19:23.991Z,958.09
2019-05-09T02:20:24.053Z,958.04
2019-05-09T02:21:23.837Z,957.98
2019-05-09T02:22:23.574Z,958.03
2019-05-09T02:23:23.327Z,957.98
2019-05-09T02:24:23.437Z,958.00
2019-05-09T02:25:24.067Z,958.02
2019-05-09T02:26:23.867Z,958.05
2019-05-09T02:27:23.738Z,958.09
2019-05-09T02:28:23.478Z,958.00
2019-05-09T02:29:23.184Z,958.06
2019-05-09T02:30:25.086Z,958.06
2019-05-09T02:31:24.323Z,958.02
2019-05-09T02:32:23.999Z,958.08
2019-05-09T02:33:24.822Z,958.04
2019-05-09T02:34:24.530Z,958.05
2019-05-09T02:35:21.747Z,958.09
2019-05-09T02:36:21.837Z,958.03
2019-05-09T02:37:21.799Z,958.06
2019-05-09T02:38:21.740Z,958.02
2019-05-09T02:39:21.689Z,957.97
2019-05-09T02:40:21.726Z,958.06
2019-05-09T02:41:21.608Z,958.03
2019-05-09T02:42:21.740Z,958.02
2019-05-09T02:43:21.640Z,958.02
2019-05-09T02:44:21.821Z,958.05
2019-05-09T02:45:21.624Z,957.94
2019-05-09T02:46:21.782Z,957.98
2019-05-09T02:47:21.888Z,957.99
2019-05-09T02:48:21.715Z,957.90
2019-05-09T02:49:21.654Z,957.98
2019-05-09T02:50:21.786Z,957.95
2019-05-09T02:51:21.784Z,957.93
2019-05-09T02:52:21.933Z,957.96
2019-05-09T02:53:21.698Z,957.92
2019-05-09T02:54:21.660Z,958.01
2019-05-09T02:55:21.694Z,957.94
2019-05-09T02:56:21.690Z,958.06
2019-05-09T02:57:29.079Z,957.85
2019-05-09T02:58:21.800Z,957.97
2019-05-09T02:59:21.732Z,957.95
2019-05-09T03:00:21.747Z,957.93
2019-05-09T03:01:21.758Z,957.91
2019-05-09T03:02:21.756Z,957.84
2019-05-09T03:03:21.687Z,957.84
2019-05-09T03:04:21.733Z,957.84
2019-05-09T03:05:21.800Z,957.78
2019-05-09T03:06:21.889Z,957.75
2019-05-09T03:07:21.737Z,957.77
2019-05-09T03:08:21.920Z,957.82
2019-05-09T03:09:21.685Z,957.83
2019-05-09T03:10:21.749Z,957.88
2019-05-09T03:11:21.665Z,957.91
2019-05-09T03:12:30.835Z,957.89
2019-05-09T03:13:21.647Z,957.90
2019-05-09T03:14:21.755Z,957.87
2019-05-09T03:15:21.599Z,957.87
2019-05-09T03:16:21.765Z,957.93
2019-05-09T03:17:21.696Z,957.91
2019-05-09T03:18:21.783Z,957.95
2019-05-09T03:19:21.858Z,957.79
2019-05-09T03:20:21.860Z,957.80
2019-05-09T03:21:21.713Z,957.77
2019-05-09T03:22:21.697Z,957.75
2019-05-09T03:23:21.701Z,957.78
2019-05-09T03:24:21.782Z,957.82
2019-05-09T03:25:21.717Z,957.76
2019-05-09T03:26:21.735Z,957.66
2019-05-09T03:27:21.757Z,957.70
2019-05-09T03:28:21.746Z,957.66
2019-05-09T03:29:21.613Z,957.61
2019-05-09T03:30:21.842Z,957.61
2019-05-09T03:31:21.766Z,957.72
2019-05-09T03:32:21.856Z,957.56
2019-05-09T03:33:21.779Z,957.57
2019-05-09T03:34:21.768Z,957.52
2019-05-09T03:35:21.707Z,957.55
2019-05-09T03:36:21.766Z,957.57
2019-05-09T03:37:21.841Z,957.47
2019-05-09T03:38:21.688Z,957.46
2019-05-09T03:39:21.748Z,957.40
2019-05-09T03:40:21.737Z,957.38
2019-05-09T03:41:21.951Z,957.29
2019-05-09T03:42:36.489Z,957.40
2019-05-09T03:43:21.756Z,957.30
2019-05-09T03:44:21.757Z,957.30
2019-05-09T03:45:21.768Z,957.31
2019-05-09T03:46:21.759Z,957.26
2019-05-09T03:47:21.798Z,957.23
2019-05-09T03:48:21.722Z,957.25
2019-05-09T03:49:21.817Z,957.25
2019-05-09T03:50:21.806Z,957.20
2019-05-09T03:51:21.830Z,957.23
2019-05-09T03:52:21.952Z,957.21
2019-05-09T03:53:21.765Z,957.20
2019-05-09T03:54:21.701Z,957.24
2019-05-09T03:55:21.660Z,957.10
2019-05-09T03:56:21.735Z,957.21
2019-05-09T03:57:21.775Z,957.17
2019-05-09T03:58:21.774Z,957.16
2019-05-09T03:59:21.802Z,957.15
2019-05-09T04:00:21.728Z,957.13
2019-05-09T04:01:21.775Z,957.15
2019-05-09T04:02:21.812Z,957.19
2019-05-09T04:03:21.892Z,957.13
2019-05-09T04:04:21.820Z,957.15
2019-05-09T04:05:21.816Z,957.23
2019-05-09T04:06:21.675Z,957.20
2019-05-09T04:07:21.777Z,957.27
2019-05-09T04:08:21.716Z,957.16
2019-05-09T04:09:21.833Z,957.15
2019-05-09T04:10:21.826Z,957.22
2019-05-09T04:11:21.719Z,957.19
2019-05-09T04:12:21.763Z,957.18
2019-05-09T04:13:21.906Z,957.17
2019-05-09T04:14:21.895Z,957.16
2019-05-09T04:15:21.799Z,957.18
2019-05-09T04:16:21.720Z,957.17
2019-05-09T04:17:21.848Z,957.18
2019-05-09T04:18:21.785Z,957.14
2019-05-09T04:19:21.769Z,957.19
2019-05-09T04:20:21.711Z,957.17
2019-05-09T04:21:21.754Z,957.23
2019-05-09T04:22:21.794Z,957.15
2019-05-09T04:23:21.832Z,957.20
2019-05-09T04:24:21.768Z,957.21
2019-05-09T04:25:21.867Z,957.24
2019-05-09T04:26:21.906Z,957.22
2019-05-09T04:27:21.804Z,957.27
2019-05-09T04:28:21.816Z,957.20
2019-05-09T04:29:21.813Z,957.19
2019-05-09T04:30:21.794Z,957.24
2019-05-09T04:31:21.823Z,957.21
2019-05-09T04:32:21.895Z,957.27
2019-05-09T04:33:21.671Z,957.25
2019-05-09T04:34:21.817Z,957.21
2019-05-09T04:35:21.717Z,957.14
2019-05-09T04:36:21.971Z,957.18
2019-05-09T04:37:21.871Z,957.21
2019-05-09T04:38:21.770Z,957.17
2019-05-09T04:39:23.695Z,957.30
2019-05-09T04:40:21.793Z,957.23
2019-05-09T04:41:23.994Z,957.31
2019-05-09T04:42:21.811Z,957.24
2019-05-09T04:43:27.183Z,957.24
2019-05-09T04:44:21.970Z,957.20
2019-05-09T04:45:21.830Z,957.15
2019-05-09T05:02:32.286Z,957.00
2019-05-09T05:03:29.018Z,956.94
2019-05-09T05:04:29.179Z,956.96
2019-05-09T05:05:29.019Z,956.97
2019-05-09T05:06:28.979Z,956.99
2019-05-09T05:07:29.020Z,956.93
2019-05-09T05:08:29.138Z,956.94
2019-05-09T05:09:28.940Z,956.82
2019-05-09T05:10:29.004Z,956.96
2019-05-09T05:11:28.971Z,956.89
2019-05-09T05:12:29.293Z,957.01
2019-05-09T05:13:29.693Z,957.04
2019-05-09T05:14:29.122Z,957.00
2019-05-09T05:15:29.125Z,957.02
2019-05-09T05:16:29.036Z,957.04
2019-05-09T05:17:30.765Z,957.00
2019-05-09T05:18:29.055Z,956.95
2019-05-09T05:19:31.403Z,956.99
2019-05-09T05:20:29.115Z,957.02
2019-05-09T05:21:29.626Z,957.07
2019-05-09T05:22:29.126Z,956.99
2019-05-09T05:23:29.309Z,956.97
2019-05-09T05:24:28.969Z,957.06
2019-05-09T05:25:29.202Z,957.02
2019-05-09T05:26:28.979Z,957.02
2019-05-09T05:27:29.219Z,956.98
2019-05-09T05:28:29.110Z,956.98
2019-05-09T05:29:29.080Z,956.93
2019-05-09T05:30:29.008Z,956.91
2019-05-09T05:31:29.241Z,956.90
2019-05-09T05:32:29.025Z,956.97
2019-05-09T05:33:29.216Z,956.88
2019-05-09T05:34:29.110Z,956.94
2019-05-09T05:35:29.097Z,956.91
2019-05-09T05:36:29.081Z,956.83
2019-05-09T05:37:29.098Z,956.81
2019-05-09T05:38:29.335Z,956.80
2019-05-09T05:39:29.076Z,956.86
2019-05-09T05:40:33.336Z,956.72
2019-05-09T05:41:29.085Z,956.77
2019-05-09T05:42:29.222Z,956.77
2019-05-09T05:43:43.308Z,956.75
2019-05-09T05:44:29.314Z,956.85
2019-05-09T05:45:29.119Z,956.79
2019-05-09T05:46:29.232Z,956.89
2019-05-09T05:47:29.433Z,956.98
2019-05-09T05:48:29.742Z,956.89
2019-05-09T05:49:29.224Z,956.92
2019-05-09T05:50:29.212Z,956.94
2019-05-09T05:51:29.181Z,956.95
2019-05-09T05:52:29.113Z,956.90
2019-05-09T05:53:28.955Z,956.91
2019-05-09T05:54:29.155Z,956.98
2019-05-09T05:55:29.586Z,957.06
2019-05-09T05:56:29.142Z,956.97
2019-05-09T05:57:29.275Z,956.99
2019-05-09T05:58:29.162Z,956.97
2019-05-09T05:59:29.196Z,956.93
2019-05-09T06:00:29.035Z,956.91
2019-05-09T06:01:29.134Z,956.90
2019-05-09T06:02:29.149Z,956.89
2019-05-09T06:03:30.146Z,956.87
2019-05-09T06:04:29.222Z,956.91
2019-05-09T06:05:30.126Z,956.86
2019-05-09T06:06:29.294Z,956.92
2019-05-09T06:07:29.116Z,956.91
2019-05-09T06:08:29.091Z,956.97
2019-05-09T06:09:29.168Z,957.10
2019-05-09T06:10:29.201Z,957.15
2019-05-09T06:11:29.111Z,957.11
2019-05-09T06:12:29.221Z,957.12
2019-05-09T06:13:29.025Z,957.12
2019-05-09T06:14:29.431Z,957.12
2019-05-09T06:15:29.183Z,957.11
2019-05-09T06:16:29.094Z,957.10
2019-05-09T06:17:29.258Z,957.05
2019-05-09T06:18:29.052Z,957.08
2019-05-09T06:19:29.202Z,957.00
2019-05-09T06:20:29.161Z,956.94
2019-05-09T06:21:29.221Z,956.99
2019-05-09T06:22:29.173Z,957.03
2019-05-09T06:23:29.110Z,956.97
2019-05-09T06:24:29.311Z,956.96
2019-05-09T06:25:30.541Z,956.92
2019-05-09T06:26:29.496Z,956.91
2019-05-09T06:27:30.170Z,956.92
2019-05-09T06:28:29.399Z,956.90
2019-05-09T06:29:29.153Z,956.82
2019-05-09T06:30:29.293Z,956.88
2019-05-09T06:31:29.318Z,956.84
2019-05-09T06:32:29.094Z,956.91
2019-05-09T06:33:29.177Z,956.79
2019-05-09T06:34:29.667Z,956.88
2019-05-09T06:35:29.225Z,956.90
2019-05-09T06:36:29.093Z,956.96
2019-05-09T06:37:29.211Z,956.93
2019-05-09T06:38:29.142Z,957.02
2019-05-09T06:39:29.472Z,956.90
2019-05-09T06:40:29.146Z,956.91
2019-05-09T06:41:29.245Z,956.86
2019-05-09T06:42:29.600Z,956.87
2019-05-09T06:43:29.359Z,956.86
2019-05-09T06:44:29.195Z,956.84
2019-05-09T06:45:29.255Z,956.97
2019-05-09T06:46:29.165Z,956.95
2019-05-09T06:47:29.324Z,956.99
2019-05-09T06:48:29.089Z,956.96
2019-05-09T06:49:31.883Z,957.04
2019-05-09T06:50:29.196Z,956.95
2019-05-09T06:51:29.240Z,956.91
2019-05-09T06:52:29.113Z,956.98
2019-05-09T06:53:29.231Z,956.96
2019-05-09T06:54:29.157Z,957.00
2019-05-09T06:55:29.744Z,956.98
2019-05-09T06:56:29.117Z,957.05
2019-05-09T06:57:29.164Z,956.94
2019-05-09T06:58:29.161Z,956.98
2019-05-09T06:59:29.202Z,956.97
2019-05-09T07:00:29.298Z,957.00
2019-05-09T07:01:29.264Z,957.02
2019-05-09T07:02:29.137Z,957.02
2019-05-09T07:03:29.180Z,957.03
2019-05-09T07:04:29.252Z,957.07
2019-05-09T07:05:29.300Z,957.10
2019-05-09T07:06:29.203Z,957.03
2019-05-09T07:07:29.218Z,957.01
2019-05-09T07:08:31.405Z,956.97
2019-05-09T07:09:29.327Z,957.05
2019-05-09T07:10:29.150Z,957.09
2019-05-09T07:11:29.276Z,957.01
2019-05-09T07:12:29.348Z,957.07
2019-05-09T07:13:29.777Z,957.05
2019-05-09T07:14:32.641Z,957.18
2019-05-09T07:15:29.203Z,957.08
2019-05-09T07:16:29.194Z,957.09
2019-05-09T07:17:31.930Z,957.11
2019-05-09T07:18:29.202Z,957.02
2019-05-09T07:19:29.288Z,957.14
2019-05-09T07:20:29.192Z,957.21
2019-05-09T07:21:29.305Z,957.30
2019-05-09T07:22:29.364Z,957.31
2019-05-09T07:23:29.414Z,957.29
2019-05-09T07:24:29.226Z,957.25
2019-05-09T07:25:29.650Z,957.27
2019-05-09T07:26:29.139Z,957.21
2019-05-09T07:27:29.151Z,957.26
2019-05-09T07:28:29.165Z,957.30
2019-05-09T07:29:29.294Z,957.37
2019-05-09T07:30:29.214Z,957.29
2019-05-09T07:31:29.343Z,957.36
2019-05-09T07:32:29.273Z,957.37
2019-05-09T07:33:29.263Z,957.33
2019-05-09T07:34:29.403Z,957.35
2019-05-09T07:35:29.148Z,957.35
2019-05-09T07:36:29.203Z,957.40
2019-05-09T07:37:29.301Z,957.34
2019-05-09T07:38:29.283Z,957.35
2019-05-09T07:39:29.272Z,957.28
2019-05-09T07:40:30.703Z,957.37
2019-05-09T07:41:29.187Z,957.39
2019-05-09T07:42:29.230Z,957.32
2019-05-09T07:43:31.448Z,957.27
2019-05-09T07:44:44.232Z,957.27
2019-05-09T07:45:29.292Z,957.28
2019-05-09T07:46:29.142Z,957.24
2019-05-09T07:47:29.389Z,957.26
2019-05-09T07:48:29.237Z,957.27
2019-05-09T07:49:29.306Z,957.26
2019-05-09T07:50:29.292Z,957.30
2019-05-09T07:51:29.262Z,957.26
2019-05-09T07:52:29.228Z,957.23
2019-05-09T07:53:30.103Z,957.21
2019-05-09T07:54:31.528Z,957.07
2019-05-09T07:55:29.306Z,957.08
2019-05-09T07:56:29.284Z,957.06
2019-05-09T07:57:29.297Z,957.09
2019-05-09T07:58:29.205Z,957.10
2019-05-09T07:59:29.530Z,956.98
2019-05-09T08:00:29.216Z,956.94
2019-05-09T08:01:29.288Z,956.99
2019-05-09T08:02:29.269Z,957.01
2019-05-09T08:03:29.309Z,957.06
2019-05-09T08:04:29.387Z,957.07
2019-05-09T08:05:29.388Z,957.07
2019-05-09T08:06:29.425Z,957.05
2019-05-09T08:07:29.390Z,957.08
2019-05-09T08:08:29.313Z,957.00
2019-05-09T08:09:29.367Z,957.00
2019-05-09T08:10:32.928Z,957.03
2019-05-09T08:11:32.210Z,957.04
2019-05-09T08:12:29.213Z,956.92
2019-05-09T08:13:29.255Z,957.01
2019-05-09T08:14:29.399Z,957.06
2019-05-09T08:15:29.228Z,957.03
2019-05-09T08:16:29.225Z,957.07
2019-05-09T08:17:29.294Z,957.04
2019-05-09T08:18:29.504Z,956.99
2019-05-09T08:19:29.230Z,957.02
2019-05-09T08:20:29.383Z,956.91
2019-05-09T08:21:29.305Z,956.97
2019-05-09T08:22:32.251Z,957.01
2019-05-09T08:23:29.449Z,956.94
2019-05-09T08:24:29.540Z,956.89
2019-05-09T08:25:29.593Z,956.95
2019-05-09T08:26:29.975Z,956.97
2019-05-09T08:27:30.374Z,956.92
2019-05-09T08:28:29.309Z,956.90
2019-05-09T08:29:29.387Z,957.00
2019-05-09T08:30:35.493Z,956.98
2019-05-09T08:31:29.301Z,956.92
2019-05-09T08:32:29.311Z,956.95
2019-05-09T08:33:29.419Z,956.98
2019-05-09T08:34:29.320Z,957.01
2019-05-09T08:35:29.293Z,956.91
2019-05-09T08:36:29.369Z,956.92
2019-05-09T08:37:29.416Z,956.85
2019-05-09T08:38:29.522Z,956.93
2019-05-09T08:39:29.379Z,956.92
2019-05-09T08:40:29.312Z,956.98
2019-05-09T08:41:29.534Z,956.92
2019-05-09T08:42:29.438Z,956.88
2019-05-09T08:43:29.307Z,956.87
2019-05-09T08:44:31.149Z,956.90
2019-05-09T08:45:31.438Z,956.91
2019-05-09T08:46:29.508Z,956.87
2019-05-09T08:47:29.337Z,956.83
2019-05-09T08:48:29.261Z,956.87
2019-05-09T08:49:29.306Z,956.94
2019-05-09T08:50:29.458Z,957.01
2019-05-09T08:51:36.818Z,956.90
2019-05-09T08:52:29.253Z,956.98
2019-05-09T08:53:29.428Z,956.96
2019-05-09T08:54:29.293Z,957.06
2019-05-09T08:55:29.493Z,957.08
2019-05-09T08:56:29.406Z,957.15
2019-05-09T08:57:29.614Z,957.14
2019-05-09T08:58:29.325Z,957.09
2019-05-09T08:59:29.401Z,957.03
2019-05-09T09:00:29.245Z,957.15
2019-05-09T09:01:47.863Z,957.06
2019-05-09T09:02:29.382Z,957.13
2019-05-09T09:03:29.270Z,957.09
2019-05-09T09:04:29.513Z,956.98
2019-05-09T09:05:29.266Z,957.02
2019-05-09T09:06:29.412Z,957.09
2019-05-09T09:07:29.878Z,956.95
2019-05-09T09:08:29.341Z,957.06
2019-05-09T09:09:29.369Z,957.04
2019-05-09T09:10:29.330Z,956.95
2019-05-09T09:11:29.493Z,957.03
2019-05-09T09:12:34.212Z,957.11
2019-05-09T09:13:29.690Z,956.98
2019-05-09T09:14:29.449Z,956.96
2019-05-09T09:15:55.894Z,956.98
2019-05-09T09:16:29.351Z,957.09
2019-05-09T09:17:29.529Z,957.05
2019-05-09T09:18:29.460Z,957.06
2019-05-09T09:19:29.389Z,957.06
2019-05-09T09:20:29.302Z,957.08
2019-05-09T09:21:29.380Z,957.10
2019-05-09T09:22:29.382Z,956.94
2019-05-09T09:23:42.803Z,957.01
2019-05-09T09:24:29.495Z,956.98
2019-05-09T09:25:29.248Z,957.00
2019-05-09T09:26:29.836Z,956.95
2019-05-09T09:27:29.397Z,956.99
2019-05-09T09:28:29.392Z,956.96
2019-05-09T09:29:29.505Z,957.04
2019-05-09T09:30:29.648Z,957.01
2019-05-09T09:31:29.336Z,957.11
2019-05-09T09:32:29.411Z,957.12
2019-05-09T09:33:29.311Z,957.13
2019-05-09T09:34:30.042Z,957.16
2019-05-09T09:35:29.436Z,957.14
2019-05-09T09:36:29.226Z,957.09
2019-05-09T09:37:44.716Z,957.09
2019-05-09T09:38:29.421Z,957.14
2019-05-09T09:39:31.252Z,957.15
2019-05-09T09:40:29.651Z,957.11
2019-05-09T09:41:29.409Z,957.11
2019-05-09T09:42:29.433Z,957.10
2019-05-09T09:43:29.408Z,957.16
2019-05-09T09:44:29.487Z,957.14
2019-05-09T09:45:29.553Z,957.12
2019-05-09T09:46:29.685Z,957.15
2019-05-09T09:47:29.323Z,957.12
2019-05-09T09:48:29.638Z,957.08
2019-05-09T09:49:29.661Z,957.11
2019-05-09T09:50:29.350Z,957.10
2019-05-09T09:51:29.468Z,957.11
2019-05-09T09:52:32.107Z,957.16
2019-05-09T09:53:29.400Z,957.09
2019-05-09T09:54:29.397Z,957.18
2019-05-09T09:55:29.499Z,957.14
2019-05-09T09:56:29.507Z,957.09
2019-05-09T09:57:29.970Z,957.17
2019-05-09T09:58:29.459Z,957.16
2019-05-09T09:59:29.474Z,957.07
2019-05-09T10:00:29.414Z,957.05
2019-05-09T10:01:29.574Z,957.14
2019-05-09T10:02:29.333Z,957.03
2019-05-09T10:03:29.353Z,957.04
2019-05-09T10:04:29.720Z,956.98
2019-05-09T10:05:29.345Z,957.09
2019-05-09T10:06:29.431Z,957.12
2019-05-09T10:07:29.368Z,957.04
2019-05-09T10:08:29.492Z,956.94
2019-05-09T10:09:29.625Z,956.95
2019-05-09T10:10:29.397Z,956.91
2019-05-09T10:11:29.555Z,956.97
2019-05-09T10:12:29.577Z,956.92
2019-05-09T10:13:29.406Z,957.03
2019-05-09T10:14:29.497Z,956.98
2019-05-09T10:15:29.444Z,956.98
2019-05-09T10:16:32.709Z,956.99
2019-05-09T10:17:29.595Z,957.06
2019-05-09T10:18:29.420Z,957.05
2019-05-09T10:19:29.731Z,957.08
2019-05-09T10:20:29.396Z,956.93
2019-05-09T10:21:29.426Z,957.15
2019-05-09T10:22:29.418Z,956.89
2019-05-09T10:23:29.596Z,957.04
2019-05-09T10:24:29.499Z,957.44
2019-05-09T10:25:29.413Z,957.15
2019-05-09T10:26:29.442Z,957.20
2019-05-09T10:27:29.410Z,957.11
2019-05-09T10:28:30.200Z,957.07
2019-05-09T10:29:29.633Z,957.26
2019-05-09T10:30:31.930Z,957.06
2019-05-09T10:31:29.373Z,957.17
2019-05-09T10:32:29.484Z,957.24
2019-05-09T10:33:29.466Z,957.01
2019-05-09T10:34:29.563Z,957.01
2019-05-09T10:35:29.391Z,957.10
2019-05-09T10:36:29.439Z,957.11
2019-05-09T10:37:29.500Z,956.99
2019-05-09T10:38:29.444Z,957.06
2019-05-09T10:39:29.469Z,957.14
2019-05-09T10:40:29.488Z,956.97
2019-05-09T10:41:29.541Z,957.10
2019-05-09T10:42:29.329Z,956.97
2019-05-09T10:43:35.587Z,957.03
2019-05-09T10:44:29.520Z,956.89
2019-05-09T10:45:29.451Z,956.97
2019-05-09T10:46:47.561Z,957.03
2019-05-09T10:47:29.461Z,956.95
2019-05-09T10:48:29.524Z,957.03
2019-05-09T10:49:29.580Z,956.74
2019-05-09T10:50:34.178Z,956.90
2019-05-09T10:51:29.551Z,956.87
2019-05-09T10:52:29.513Z,956.84
2019-05-09T10:53:31.510Z,956.74
2019-05-09T10:54:29.487Z,956.80
2019-05-09T10:55:29.599Z,956.80
2019-05-09T10:56:29.714Z,956.76
2019-05-09T10:57:31.472Z,956.73
2019-05-09T10:58:29.570Z,956.73
2019-05-09T10:59:29.668Z,956.73
2019-05-09T11:00:29.479Z,956.68
2019-05-09T11:01:29.773Z,956.73
2019-05-09T11:02:29.495Z,956.71
2019-05-09T11:03:29.675Z,956.61
2019-05-09T11:04:29.548Z,956.65
2019-05-09T11:05:29.590Z,956.71
2019-05-09T11:06:29.588Z,956.58
2019-05-09T11:07:29.440Z,956.68
2019-05-09T11:08:30.778Z,956.45
2019-05-09T11:09:29.550Z,956.54
2019-05-09T11:10:32.558Z,956.58
2019-05-09T11:11:29.627Z,956.54
2019-05-09T11:12:29.512Z,956.64
2019-05-09T11:13:29.599Z,956.54
2019-05-09T11:14:36.926Z,956.65
2019-05-09T11:15:29.533Z,956.73
2019-05-09T11:16:41.957Z,956.69
2019-05-09T11:17:29.589Z,956.78
2019-05-09T11:18:29.486Z,956.75
2019-05-09T11:19:30.109Z,956.75
2019-05-09T11:20:29.682Z,956.60
2019-05-09T11:21:29.570Z,956.41
2019-05-09T11:22:29.509Z,956.89
2019-05-09T11:23:29.525Z,956.90
2019-05-09T11:24:41.077Z,956.90
2019-05-09T11:25:29.638Z,957.11
2019-05-09T11:26:29.485Z,957.19
2019-05-09T11:27:29.518Z,957.25
2019-05-09T11:28:29.500Z,957.26
2019-05-09T11:29:29.603Z,957.40
2019-05-09T11:30:29.507Z,957.37
2019-05-09T11:31:29.825Z,957.20
2019-05-09T11:32:29.682Z,957.25
2019-05-09T11:33:29.803Z,957.25
2019-05-09T11:34:29.612Z,957.31
2019-05-09T11:35:29.573Z,957.26
2019-05-09T11:36:29.698Z,957.26
2019-05-09T11:37:29.462Z,957.21
2019-05-09T11:38:36.089Z,957.16
2019-05-09T11:39:36.555Z,957.25
2019-05-09T11:40:29.471Z,957.04
2019-05-09T11:41:30.247Z,957.11
2019-05-09T11:42:33.287Z,957.10
2019-05-09T11:43:29.859Z,956.97
2019-05-09T11:44:29.623Z,956.87
2019-05-09T11:45:29.513Z,957.08
2019-05-09T11:46:29.524Z,957.05
2019-05-09T11:47:38.137Z,956.93
2019-05-09T11:48:29.611Z,956.93
2019-05-09T11:49:29.678Z,956.91
2019-05-09T11:50:29.976Z,956.98
2019-05-09T11:51:29.601Z,956.99
2019-05-09T11:52:30.527Z,957.08
2019-05-09T11:53:29.582Z,956.66
2019-05-09T11:54:29.637Z,957.02
2019-05-09T11:55:35.637Z,956.95
2019-05-09T11:56:29.524Z,957.00
2019-05-09T11:57:31.577Z,956.92
2019-05-09T11:58:29.623Z,957.08
2019-05-09T11:59:29.615Z,957.13
2019-05-09T12:00:30.153Z,956.85
2019-05-09T12:01:29.558Z,957.04
2019-05-09T12:02:29.823Z,957.17
2019-05-09T12:03:30.600Z,957.43
2019-05-09T12:04:29.644Z,957.24
2019-05-09T12:05:29.579Z,957.27
2019-05-09T12:06:29.559Z,957.23
2019-05-09T12:07:29.880Z,957.24
2019-05-09T12:08:29.609Z,957.33
2019-05-09T12:09:29.680Z,957.30
2019-05-09T12:10:29.637Z,957.15
2019-05-09T12:11:29.663Z,957.60
2019-05-09T12:12:29.654Z,957.38
2019-05-09T12:13:29.511Z,957.39
2019-05-09T12:14:29.622Z,957.04
2019-05-09T12:15:29.555Z,957.30
2019-05-09T12:16:29.699Z,957.37
2019-05-09T12:17:48.226Z,957.43
2019-05-09T12:18:29.590Z,957.49
2019-05-09T12:19:29.734Z,957.31
2019-05-09T12:20:30.954Z,957.43
2019-05-09T12:21:29.484Z,957.38
2019-05-09T12:22:29.586Z,957.36
2019-05-09T12:23:29.627Z,957.49
2019-05-09T12:24:29.773Z,957.40
2019-05-09T12:25:29.675Z,957.13
2019-05-09T12:26:29.663Z,957.46
2019-05-09T12:27:29.843Z,957.42
2019-05-09T12:28:29.573Z,957.45
2019-05-09T12:29:29.737Z,957.34
2019-05-09T12:30:29.652Z,957.45
2019-05-09T12:31:30.380Z,957.39
2019-05-09T12:32:29.681Z,957.47
2019-05-09T12:33:33.103Z,957.37
2019-05-09T12:34:29.794Z,957.41
2019-05-09T12:35:29.694Z,957.40
2019-05-09T12:36:29.755Z,957.42
2019-05-09T12:37:29.805Z,957.36
2019-05-09T12:38:29.635Z,957.32
2019-05-09T12:39:29.848Z,957.46
2019-05-09T12:40:29.751Z,957.51
2019-05-09T12:41:31.501Z,957.61
2019-05-09T12:42:29.927Z,957.73
2019-05-09T12:43:29.668Z,957.62
2019-05-09T12:44:30.935Z,957.77